createdAt,value
2017-10-13T00:00:14.201Z,7.20
2017-10-13T00:01:14.222Z,7.00
2017-10-13T00:02:14.240Z,7.50
2017-10-13T00:03:14.267Z,7.20
2017-10-13T00:04:14.273Z,6.40
2017-10-13T00:05:14.309Z,6.20
2017-10-13T00:06:14.312Z,6.50
2017-10-13T00:07:14.330Z,6.50
2017-10-13T00:08:14.349Z,6.50
2017-10-13T00:09:14.367Z,6.70
2017-10-13T00:10:14.424Z,6.70
2017-10-13T00:11:14.405Z,6.30
2017-10-13T00:12:14.419Z,5.80
2017-10-13T00:13:14.437Z,6.60
2017-10-13T00:14:14.458Z,6.50
2017-10-13T00:15:14.499Z,6.20
2017-10-13T00:16:14.496Z,5.80
2017-10-13T00:17:14.513Z,6.00
2017-10-13T00:18:14.528Z,5.80
2017-10-13T00:19:14.548Z,6.30
2017-10-13T00:20:14.564Z,5.70
2017-10-13T00:21:14.585Z,6.20
2017-10-13T00:22:14.634Z,6.10
2017-10-13T00:23:14.620Z,5.80
2017-10-13T00:24:14.638Z,5.70
2017-10-13T00:25:14.675Z,6.30
2017-10-13T00:26:14.674Z,6.20
2017-10-13T00:27:14.694Z,5.90
2017-10-13T00:28:14.712Z,5.40
2017-10-13T00:29:14.747Z,5.70
2017-10-13T00:30:14.752Z,4.90
2017-10-13T00:31:14.764Z,5.50
2017-10-13T00:32:14.800Z,5.40
2017-10-13T00:33:14.799Z,5.60
2017-10-13T00:34:14.819Z,5.50
2017-10-13T00:35:14.838Z,5.70
2017-10-13T00:36:14.855Z,5.10
2017-10-13T00:37:14.910Z,5.00
2017-10-13T00:38:14.913Z,5.50
2017-10-13T00:39:15.020Z,4.70
2017-10-13T00:40:14.937Z,5.60
2017-10-13T00:41:14.946Z,4.60
2017-10-13T00:42:14.962Z,4.80
2017-10-13T00:43:14.982Z,5.40
2017-10-13T00:44:15.001Z,5.00
2017-10-13T00:45:15.044Z,5.40
2017-10-13T00:46:15.036Z,5.20
2017-10-13T00:47:15.055Z,5.10
2017-10-13T00:48:15.089Z,5.00
2017-10-13T00:49:15.090Z,4.90
2017-10-13T00:50:15.108Z,5.50
2017-10-13T00:51:15.125Z,4.80
2017-10-13T00:52:15.166Z,5.10
2017-10-13T00:53:15.164Z,6.10
2017-10-13T00:54:15.190Z,5.30
2017-10-13T00:55:15.197Z,5.70
2017-10-13T00:56:15.216Z,5.30
2017-10-13T00:57:15.235Z,5.20
2017-10-13T00:58:15.292Z,5.20
2017-10-13T00:59:15.273Z,5.70
2017-10-13T01:00:15.289Z,5.10
2017-10-13T01:01:15.308Z,5.50
2017-10-13T01:02:15.326Z,5.20
2017-10-13T01:03:15.347Z,5.80
2017-10-13T01:04:15.362Z,4.80
2017-10-13T01:05:15.380Z,5.10
2017-10-13T01:06:15.495Z,5.30
2017-10-13T01:07:15.427Z,5.00
2017-10-13T01:08:15.433Z,5.50
2017-10-13T01:09:15.451Z,5.60
2017-10-13T01:10:15.473Z,5.80
2017-10-13T01:11:15.489Z,5.50
2017-10-13T01:12:15.507Z,5.80
2017-10-13T01:13:15.525Z,5.50
2017-10-13T01:14:15.541Z,5.40
2017-10-13T01:15:15.642Z,5.70
2017-10-13T01:16:15.574Z,5.60
2017-10-13T01:17:15.601Z,6.20
2017-10-13T01:18:15.613Z,6.50
2017-10-13T01:19:15.632Z,6.20
2017-10-13T01:20:15.656Z,5.70
2017-10-13T01:21:15.667Z,7.10
2017-10-13T01:22:15.686Z,6.00
2017-10-13T01:23:15.704Z,6.20
2017-10-13T01:24:15.721Z,6.40
2017-10-13T01:25:15.744Z,6.00
2017-10-13T01:26:15.760Z,6.50
2017-10-13T01:27:15.774Z,6.90
2017-10-13T01:28:15.795Z,6.20
2017-10-13T01:29:15.820Z,6.30
2017-10-13T01:30:15.832Z,6.80
2017-10-13T01:31:15.845Z,7.00
2017-10-13T01:32:15.867Z,7.80
2017-10-13T01:33:15.887Z,6.70
2017-10-13T01:34:15.901Z,6.30
2017-10-13T01:35:15.918Z,6.50
2017-10-13T01:36:15.939Z,6.80
2017-10-13T01:37:15.956Z,6.80
2017-10-13T01:38:16.029Z,6.40
2017-10-13T01:39:15.990Z,5.90
2017-10-13T01:40:16.007Z,5.90
2017-10-13T01:41:16.025Z,6.60
2017-10-13T01:42:16.043Z,6.50
2017-10-13T01:43:16.065Z,7.00
2017-10-13T01:44:16.080Z,7.00
2017-10-13T01:45:16.099Z,6.10
2017-10-13T01:46:16.128Z,6.50
2017-10-13T01:47:16.134Z,7.20
2017-10-13T01:48:16.153Z,7.70
2017-10-13T01:49:16.170Z,7.40
2017-10-13T01:50:16.188Z,6.90
2017-10-13T01:51:16.208Z,7.90
2017-10-13T01:52:16.229Z,7.10
2017-10-13T01:53:16.247Z,7.50
2017-10-13T01:54:16.259Z,7.40
2017-10-13T01:55:16.279Z,7.00
2017-10-13T01:56:16.300Z,7.30
2017-10-13T01:57:16.315Z,8.00
2017-10-13T01:58:16.334Z,8.20
2017-10-13T01:59:16.352Z,8.10
2017-10-13T02:00:16.449Z,7.90
2017-10-13T02:01:16.393Z,8.30
2017-10-13T02:02:16.405Z,7.30
2017-10-13T02:03:16.424Z,7.40
2017-10-13T02:04:16.472Z,7.60
2017-10-13T02:05:16.462Z,8.70
2017-10-13T02:06:16.477Z,8.20
2017-10-13T02:07:16.495Z,8.10
2017-10-13T02:08:16.514Z,8.70
2017-10-13T02:09:16.534Z,8.10
2017-10-13T02:10:16.683Z,8.10
2017-10-13T02:11:16.568Z,8.00
2017-10-13T02:12:16.608Z,7.90
2017-10-13T02:13:16.608Z,7.70
2017-10-13T02:14:16.624Z,7.90
2017-10-13T02:15:16.658Z,8.20
2017-10-13T02:16:16.658Z,7.70
2017-10-13T02:17:16.678Z,6.80
2017-10-13T02:18:16.695Z,7.50
2017-10-13T02:19:16.713Z,7.00
2017-10-13T02:20:16.736Z,9.20
2017-10-13T02:21:16.752Z,7.10
2017-10-13T02:22:16.773Z,8.40
2017-10-13T02:23:16.788Z,7.10
2017-10-13T02:24:16.805Z,8.10
2017-10-13T02:25:16.823Z,7.20
2017-10-13T02:26:16.844Z,7.30
2017-10-13T02:27:16.861Z,8.20
2017-10-13T02:28:16.880Z,8.30
2017-10-13T02:29:16.897Z,8.40
2017-10-13T02:30:16.919Z,8.00
2017-10-13T02:31:16.935Z,8.20
2017-10-13T02:32:16.953Z,7.50
2017-10-13T02:33:16.971Z,7.30
2017-10-13T02:34:16.989Z,7.60
2017-10-13T02:35:17.005Z,8.40
2017-10-13T02:36:17.025Z,7.40
2017-10-13T02:37:17.046Z,7.30
2017-10-13T02:38:17.065Z,7.30
2017-10-13T02:39:17.080Z,7.60
2017-10-13T02:40:17.100Z,7.10
2017-10-13T02:41:17.119Z,7.10
2017-10-13T02:42:17.138Z,6.80
2017-10-13T02:43:17.152Z,6.30
2017-10-13T02:44:17.171Z,6.10
2017-10-13T02:45:17.191Z,6.00
2017-10-13T02:46:17.210Z,6.50
2017-10-13T02:47:17.227Z,6.70
2017-10-13T02:48:17.248Z,6.10
2017-10-13T02:49:17.262Z,6.70
2017-10-13T02:50:17.285Z,7.10
2017-10-13T02:51:17.302Z,6.80
2017-10-13T02:52:17.320Z,7.10
2017-10-13T02:53:17.338Z,7.10
2017-10-13T02:54:17.358Z,6.60
2017-10-13T02:55:17.373Z,6.90
2017-10-13T02:56:17.391Z,7.40
2017-10-13T02:57:17.409Z,6.90
2017-10-13T02:58:17.429Z,7.30
2017-10-13T02:59:17.449Z,7.30
2017-10-13T03:00:17.464Z,6.70
2017-10-13T03:01:17.483Z,7.30
2017-10-13T03:02:17.503Z,7.40
2017-10-13T03:03:17.519Z,7.20
2017-10-13T03:04:17.537Z,7.20
2017-10-13T03:05:17.560Z,7.10
2017-10-13T03:06:17.578Z,6.40
2017-10-13T03:07:17.592Z,7.40
2017-10-13T03:08:17.609Z,6.80
2017-10-13T03:09:17.630Z,6.00
2017-10-13T03:10:17.647Z,6.60
2017-10-13T03:11:17.686Z,7.00
2017-10-13T03:12:17.684Z,6.10
2017-10-13T03:13:17.707Z,6.20
2017-10-13T03:14:17.720Z,6.10
2017-10-13T03:15:17.748Z,5.80
2017-10-13T03:16:17.759Z,5.90
2017-10-13T03:17:17.778Z,6.10
2017-10-13T03:18:17.796Z,6.10
2017-10-13T03:19:17.827Z,6.10
2017-10-13T03:20:17.835Z,6.40
2017-10-13T03:21:17.850Z,6.60
2017-10-13T03:22:17.870Z,5.90
2017-10-13T03:23:17.886Z,6.20
2017-10-13T03:24:17.906Z,6.30
2017-10-13T03:25:17.923Z,6.30
2017-10-13T03:26:17.946Z,6.20
2017-10-13T03:27:17.959Z,6.90
2017-10-13T03:28:17.978Z,6.60
2017-10-13T03:29:18.002Z,6.20
2017-10-13T03:30:18.022Z,6.60
2017-10-13T03:31:18.033Z,6.90
2017-10-13T03:32:18.050Z,6.40
2017-10-13T03:33:18.072Z,6.20
2017-10-13T03:34:18.091Z,6.00
2017-10-13T03:35:18.109Z,6.30
2017-10-13T03:36:18.133Z,6.00
2017-10-13T03:37:18.142Z,5.90
2017-10-13T03:38:18.175Z,6.40
2017-10-13T03:39:18.184Z,5.90
2017-10-13T03:40:18.197Z,6.00
2017-10-13T03:41:18.218Z,6.10
2017-10-13T03:42:18.237Z,5.60
2017-10-13T03:43:18.254Z,6.50
2017-10-13T03:44:18.277Z,6.20
2017-10-13T03:45:18.288Z,6.10
2017-10-13T03:46:18.307Z,6.30
2017-10-13T03:47:18.328Z,6.10
2017-10-13T03:48:18.346Z,7.20
2017-10-13T03:49:18.361Z,6.10
2017-10-13T03:50:18.384Z,6.80
2017-10-13T03:51:18.400Z,6.10
2017-10-13T03:52:18.419Z,6.10
2017-10-13T03:53:18.434Z,6.50
2017-10-13T03:54:18.454Z,6.70
2017-10-13T03:55:18.471Z,7.00
2017-10-13T03:56:18.496Z,6.30
2017-10-13T03:57:18.508Z,7.00
2017-10-13T03:58:18.529Z,6.60
2017-10-13T03:59:18.543Z,5.80
2017-10-13T04:00:18.565Z,6.60
2017-10-13T04:01:18.581Z,6.20
2017-10-13T04:02:18.602Z,6.30
2017-10-13T04:03:18.619Z,6.20
2017-10-13T04:04:18.633Z,6.50
2017-10-13T04:05:18.655Z,6.60
2017-10-13T04:06:18.676Z,6.70
2017-10-13T04:07:18.689Z,6.50
2017-10-13T04:08:18.705Z,6.50
2017-10-13T04:09:18.723Z,6.10
2017-10-13T04:10:18.746Z,5.10
2017-10-13T04:11:18.772Z,5.50
2017-10-13T04:12:18.784Z,5.70
2017-10-13T04:13:18.799Z,5.90
2017-10-13T04:14:18.816Z,5.70
2017-10-13T04:15:18.831Z,5.10
2017-10-13T04:16:18.850Z,5.40
2017-10-13T04:17:18.871Z,4.90
2017-10-13T04:18:18.889Z,5.50
2017-10-13T04:19:18.907Z,5.10
2017-10-13T04:20:18.929Z,4.90
2017-10-13T04:21:18.941Z,4.50
2017-10-13T04:22:18.963Z,5.60
2017-10-13T04:23:18.986Z,5.20
2017-10-13T04:24:18.995Z,5.00
2017-10-13T04:25:19.017Z,5.60
2017-10-13T04:26:19.034Z,5.10
2017-10-13T04:27:19.072Z,5.10
2017-10-13T04:28:19.069Z,5.40
2017-10-13T04:29:19.088Z,5.00
2017-10-13T04:30:19.106Z,5.80
2017-10-13T04:31:19.122Z,5.70
2017-10-13T04:32:19.142Z,5.90
2017-10-13T04:33:19.160Z,5.20
2017-10-13T04:34:19.177Z,5.60
2017-10-13T04:35:19.195Z,5.00
2017-10-13T04:36:19.217Z,5.30
2017-10-13T04:37:19.235Z,5.80
2017-10-13T04:38:19.254Z,6.50
2017-10-13T04:39:19.270Z,5.90
2017-10-13T04:40:19.300Z,5.40
2017-10-13T04:41:19.308Z,5.80
2017-10-13T04:42:19.327Z,6.60
2017-10-13T04:43:19.342Z,6.80
2017-10-13T04:44:19.363Z,6.10
2017-10-13T04:45:19.377Z,7.00
2017-10-13T04:46:19.403Z,6.90
2017-10-13T04:47:19.420Z,6.20
2017-10-13T04:48:19.436Z,5.50
2017-10-13T04:49:19.454Z,5.90
2017-10-13T04:50:19.470Z,6.50
2017-10-13T04:51:19.489Z,7.40
2017-10-13T04:52:19.509Z,7.90
2017-10-13T04:53:19.525Z,7.90
2017-10-13T04:54:19.546Z,7.30
2017-10-13T04:55:19.564Z,9.30
2017-10-13T04:56:19.583Z,9.70
2017-10-13T04:57:19.601Z,9.90
2017-10-13T04:58:19.619Z,9.50
2017-10-13T04:59:19.636Z,9.40
2017-10-13T05:00:19.661Z,9.20
2017-10-13T05:01:19.676Z,8.40
2017-10-13T05:02:19.692Z,8.30
2017-10-13T05:03:19.713Z,7.20
2017-10-13T05:04:19.738Z,6.90
2017-10-13T05:05:19.751Z,6.70
2017-10-13T05:06:19.765Z,6.80
2017-10-13T05:07:19.794Z,6.40
2017-10-13T05:08:19.800Z,6.20
2017-10-13T05:09:19.820Z,6.80
2017-10-13T05:10:19.837Z,6.80
2017-10-13T05:11:19.858Z,7.10
2017-10-13T05:12:19.883Z,6.90
2017-10-13T05:13:19.898Z,6.20
2017-10-13T05:14:19.911Z,6.10
2017-10-13T05:15:19.945Z,5.90
2017-10-13T05:16:19.950Z,6.10
2017-10-13T05:17:19.985Z,5.10
2017-10-13T05:18:19.990Z,5.30
2017-10-13T05:19:20.003Z,6.30
2017-10-13T05:20:20.023Z,6.20
2017-10-13T05:21:20.047Z,7.80
2017-10-13T05:22:20.060Z,8.90
2017-10-13T05:23:20.078Z,7.50
2017-10-13T05:24:20.095Z,7.40
2017-10-13T05:25:20.121Z,7.40
2017-10-13T05:26:20.134Z,6.40
2017-10-13T05:27:20.151Z,6.10
2017-10-13T05:28:20.170Z,6.10
2017-10-13T05:29:20.194Z,5.90
2017-10-13T05:30:20.214Z,7.90
2017-10-13T05:31:20.234Z,10.30
2017-10-13T05:32:20.245Z,12.30
2017-10-13T05:33:20.266Z,12.50
2017-10-13T05:34:20.284Z,16.20
2017-10-13T05:35:20.300Z,14.60
2017-10-13T05:36:20.324Z,11.60
2017-10-13T05:37:20.352Z,10.50
2017-10-13T05:38:20.358Z,9.50
2017-10-13T05:39:20.379Z,10.90
2017-10-13T05:40:20.395Z,8.80
2017-10-13T05:41:20.413Z,6.90
2017-10-13T05:42:20.433Z,6.90
2017-10-13T05:43:20.448Z,7.00
2017-10-13T05:44:20.481Z,9.90
2017-10-13T05:45:20.487Z,11.20
2017-10-13T05:46:20.513Z,10.30
2017-10-13T05:47:20.525Z,9.80
2017-10-13T05:48:20.543Z,7.70
2017-10-13T05:49:20.563Z,5.90
2017-10-13T05:50:20.581Z,5.40
2017-10-13T05:51:20.601Z,5.20
2017-10-13T05:52:20.616Z,5.70
2017-10-13T05:53:20.636Z,7.00
2017-10-13T05:54:20.657Z,6.30
2017-10-13T05:55:20.676Z,5.10
2017-10-13T05:56:20.693Z,4.80
2017-10-13T05:57:20.715Z,4.90
2017-10-13T05:58:20.728Z,4.00
2017-10-13T05:59:20.748Z,4.80
2017-10-13T06:00:20.767Z,5.00
2017-10-13T06:01:20.786Z,4.50
2017-10-13T06:02:20.805Z,4.50
2017-10-13T06:03:20.824Z,4.40
2017-10-13T06:04:20.841Z,4.70
2017-10-13T06:05:20.864Z,4.30
2017-10-13T06:06:20.882Z,5.20
2017-10-13T06:07:20.901Z,4.50
2017-10-13T06:08:20.916Z,4.40
2017-10-13T06:09:20.937Z,4.40
2017-10-13T06:10:20.961Z,4.50
2017-10-13T06:11:20.980Z,4.70
2017-10-13T06:12:20.990Z,4.90
2017-10-13T06:13:21.011Z,5.70
2017-10-13T06:14:21.030Z,5.50
2017-10-13T06:15:21.053Z,4.60
2017-10-13T06:16:21.067Z,5.10
2017-10-13T06:17:21.092Z,5.30
2017-10-13T06:18:21.110Z,5.40
2017-10-13T06:19:21.126Z,5.90
2017-10-13T06:20:21.142Z,5.40
2017-10-13T06:21:21.160Z,5.70
2017-10-13T06:22:21.176Z,5.30
2017-10-13T06:23:21.196Z,5.30
2017-10-13T06:24:21.217Z,4.60
2017-10-13T06:25:21.244Z,4.30
2017-10-13T06:26:21.252Z,4.60
2017-10-13T06:27:21.275Z,5.20
2017-10-13T06:28:21.290Z,5.50
2017-10-13T06:29:21.311Z,5.40
2017-10-13T06:30:21.326Z,4.80
2017-10-13T06:31:21.345Z,4.70
2017-10-13T06:32:21.367Z,5.50
2017-10-13T06:33:21.384Z,5.50
2017-10-13T06:34:21.405Z,5.30
2017-10-13T06:35:21.419Z,5.90
2017-10-13T06:36:21.440Z,6.40
2017-10-13T06:37:21.460Z,6.50
2017-10-13T06:38:21.478Z,6.70
2017-10-13T06:39:21.495Z,7.40
2017-10-13T06:40:21.514Z,7.70
2017-10-13T06:41:21.535Z,8.00
2017-10-13T06:42:21.554Z,8.00
2017-10-13T06:43:21.571Z,8.30
2017-10-13T06:44:21.594Z,7.70
2017-10-13T06:45:21.609Z,7.30
2017-10-13T06:46:21.630Z,8.70
2017-10-13T06:47:21.649Z,15.50
2017-10-13T06:48:21.668Z,20.10
2017-10-13T06:49:21.692Z,26.80
2017-10-13T06:50:21.711Z,46.80
2017-10-13T06:51:21.723Z,51.90
2017-10-13T06:52:21.746Z,54.50
2017-10-13T06:53:21.762Z,52.70
2017-10-13T06:54:21.783Z,49.20
2017-10-13T06:55:21.800Z,39.00
2017-10-13T06:56:21.837Z,41.20
2017-10-13T06:57:21.837Z,41.50
2017-10-13T06:58:21.860Z,17.00
2017-10-13T06:59:21.877Z,7.40
2017-10-13T07:00:21.901Z,7.40
2017-10-13T07:01:21.918Z,5.20
2017-10-13T07:02:21.938Z,5.90
2017-10-13T07:03:21.955Z,6.60
2017-10-13T07:04:21.977Z,6.10
2017-10-13T07:05:21.997Z,7.10
2017-10-13T07:06:22.018Z,7.70
2017-10-13T07:07:22.036Z,7.20
2017-10-13T07:08:22.054Z,6.80
2017-10-13T07:09:22.074Z,7.30
2017-10-13T07:10:22.093Z,8.20
2017-10-13T07:11:22.111Z,8.50
2017-10-13T07:12:22.131Z,8.20
2017-10-13T07:13:22.152Z,7.60
2017-10-13T07:14:22.172Z,7.90
2017-10-13T07:15:22.194Z,8.40
2017-10-13T07:16:22.211Z,8.30
2017-10-13T07:17:22.231Z,8.20
2017-10-13T07:18:22.252Z,8.00
2017-10-13T07:19:22.272Z,7.80
2017-10-13T07:20:22.291Z,8.20
2017-10-13T07:21:22.311Z,14.10
2017-10-13T07:22:22.337Z,12.80
2017-10-13T07:23:22.356Z,11.40
2017-10-13T07:24:22.375Z,15.70
2017-10-13T07:25:22.390Z,24.50
2017-10-13T07:26:22.412Z,21.70
2017-10-13T07:27:22.432Z,21.70
2017-10-13T07:28:22.450Z,23.60
2017-10-13T07:29:22.474Z,22.20
2017-10-13T07:30:22.490Z,19.10
2017-10-13T07:31:22.514Z,16.00
2017-10-13T07:32:22.530Z,13.20
2017-10-13T07:33:22.551Z,11.20
2017-10-13T07:34:22.577Z,9.40
2017-10-13T07:35:22.588Z,10.00
2017-10-13T07:36:22.607Z,8.90
2017-10-13T07:37:22.649Z,6.60
2017-10-13T07:38:22.657Z,5.50
2017-10-13T07:39:22.671Z,6.20
2017-10-13T07:40:22.705Z,6.30
2017-10-13T07:41:22.713Z,5.80
2017-10-13T07:42:22.730Z,5.90
2017-10-13T07:43:22.751Z,6.00
2017-10-13T07:44:22.780Z,5.00
2017-10-13T07:45:22.792Z,5.90
2017-10-13T07:46:22.823Z,5.30
2017-10-13T07:47:22.838Z,5.50
2017-10-13T07:48:22.857Z,5.70
2017-10-13T07:49:22.881Z,5.40
2017-10-13T07:50:22.902Z,5.50
2017-10-13T07:51:22.922Z,5.20
2017-10-13T07:52:22.948Z,5.50
2017-10-13T07:53:22.972Z,4.90
2017-10-13T07:54:22.990Z,5.00
2017-10-13T07:55:23.011Z,5.40
2017-10-13T07:56:23.034Z,5.00
2017-10-13T07:57:23.054Z,4.60
2017-10-13T07:58:23.080Z,5.30
2017-10-13T07:59:23.101Z,5.40
2017-10-13T08:00:23.120Z,5.40
2017-10-13T08:01:23.146Z,5.10
2017-10-13T08:02:23.166Z,5.10
2017-10-13T08:03:23.190Z,5.40
2017-10-13T08:04:23.211Z,5.30
2017-10-13T08:05:23.235Z,5.60
2017-10-13T08:06:23.257Z,5.50
2017-10-13T08:07:23.279Z,5.30
2017-10-13T08:08:23.301Z,4.90
2017-10-13T08:09:23.324Z,4.80
2017-10-13T08:10:23.347Z,4.30
2017-10-13T08:11:23.367Z,4.60
2017-10-13T08:12:23.387Z,4.90
2017-10-13T08:13:23.409Z,5.10
2017-10-13T08:14:23.432Z,5.20
2017-10-13T08:15:23.452Z,4.90
2017-10-13T08:16:23.480Z,5.00
2017-10-13T08:17:23.496Z,5.10
2017-10-13T08:18:23.521Z,5.20
2017-10-13T08:19:23.539Z,5.10
2017-10-13T08:20:23.561Z,4.60
2017-10-13T08:21:23.584Z,4.80
2017-10-13T08:22:23.602Z,5.40
2017-10-13T08:23:23.623Z,5.00
2017-10-13T08:24:23.645Z,5.40
2017-10-13T08:25:23.667Z,5.50
2017-10-13T08:26:23.688Z,5.60
2017-10-13T08:27:23.714Z,5.30
2017-10-13T08:28:23.739Z,4.90
2017-10-13T08:29:23.751Z,5.10
2017-10-13T08:30:23.775Z,5.00
2017-10-13T08:31:23.803Z,5.10
2017-10-13T08:32:23.816Z,4.50
2017-10-13T08:33:23.846Z,5.30
2017-10-13T08:34:23.857Z,4.70
2017-10-13T08:35:23.881Z,5.20
2017-10-13T08:36:23.901Z,5.40
2017-10-13T08:37:23.922Z,5.40
2017-10-13T08:38:23.945Z,5.30
2017-10-13T08:39:23.964Z,4.70
2017-10-13T08:40:23.985Z,4.20
2017-10-13T08:41:24.010Z,5.30
2017-10-13T08:42:24.038Z,4.70
2017-10-13T08:43:24.050Z,4.60
2017-10-13T08:44:24.073Z,4.60
2017-10-13T08:45:24.099Z,4.90
2017-10-13T08:46:24.120Z,4.60
2017-10-13T08:47:24.136Z,4.80
2017-10-13T08:48:24.157Z,4.80
2017-10-13T08:49:24.185Z,4.90
2017-10-13T08:50:24.202Z,4.60
2017-10-13T08:51:24.223Z,4.30
2017-10-13T08:52:24.248Z,4.40
2017-10-13T08:53:24.271Z,4.20
2017-10-13T08:54:24.294Z,4.40
2017-10-13T08:55:24.311Z,3.90
2017-10-13T08:56:24.331Z,4.40
2017-10-13T08:57:24.361Z,5.00
2017-10-13T08:58:24.380Z,5.10
2017-10-13T08:59:24.397Z,4.50
2017-10-13T09:00:24.421Z,4.70
2017-10-13T09:01:24.441Z,4.40
2017-10-13T09:02:24.470Z,4.50
2017-10-13T09:03:24.496Z,4.40
2017-10-13T09:04:24.509Z,4.10
2017-10-13T09:05:24.528Z,4.50
2017-10-13T09:06:24.554Z,4.60
2017-10-13T09:07:24.570Z,4.00
2017-10-13T09:08:24.592Z,4.60
2017-10-13T09:09:24.616Z,4.20
2017-10-13T09:10:24.637Z,4.20
2017-10-13T09:11:24.664Z,4.50
2017-10-13T09:12:24.681Z,4.70
2017-10-13T09:13:24.706Z,5.70
2017-10-13T09:14:24.731Z,4.90
2017-10-13T09:15:24.747Z,4.40
2017-10-13T09:16:24.778Z,4.70
2017-10-13T09:17:24.790Z,4.20
2017-10-13T09:18:24.835Z,4.40
2017-10-13T09:19:24.848Z,4.40
2017-10-13T09:20:24.856Z,4.90
2017-10-13T09:21:24.879Z,4.00
2017-10-13T09:22:24.898Z,4.20
2017-10-13T09:23:24.922Z,4.70
2017-10-13T09:24:24.942Z,4.80
2017-10-13T09:25:24.969Z,4.30
2017-10-13T09:26:24.986Z,5.10
2017-10-13T09:27:25.011Z,4.90
2017-10-13T09:28:25.031Z,4.70
2017-10-13T09:29:25.054Z,4.70
2017-10-13T09:30:25.073Z,4.70
2017-10-13T09:31:25.101Z,4.20
2017-10-13T09:32:25.118Z,4.70
2017-10-13T09:33:25.140Z,4.50
2017-10-13T09:34:25.161Z,4.90
2017-10-13T09:35:25.182Z,5.20
2017-10-13T09:36:25.206Z,4.10
2017-10-13T09:37:25.228Z,5.10
2017-10-13T09:38:25.256Z,5.00
2017-10-13T09:39:25.273Z,4.70
2017-10-13T09:40:25.293Z,4.40
2017-10-13T09:41:25.317Z,4.90
2017-10-13T09:42:25.352Z,5.30
2017-10-13T09:43:25.366Z,4.80
2017-10-13T09:44:25.406Z,4.90
2017-10-13T09:45:25.413Z,4.40
2017-10-13T09:46:25.426Z,4.90
2017-10-13T09:47:25.449Z,4.20
2017-10-13T09:48:25.468Z,4.50
2017-10-13T09:49:25.489Z,4.70
2017-10-13T09:50:25.514Z,4.60
2017-10-13T09:51:25.543Z,4.30
2017-10-13T09:52:25.565Z,4.50
2017-10-13T09:53:25.584Z,4.50
2017-10-13T09:54:25.604Z,4.50
2017-10-13T09:55:25.624Z,4.40
2017-10-13T09:56:25.655Z,4.60
2017-10-13T09:57:25.665Z,4.80
2017-10-13T09:58:25.689Z,5.10
2017-10-13T09:59:25.711Z,4.80
2017-10-13T10:00:25.736Z,4.50
2017-10-13T10:01:25.755Z,5.80
2017-10-13T10:02:25.777Z,6.20
2017-10-13T10:03:25.799Z,6.90
2017-10-13T10:04:25.821Z,5.20
2017-10-13T10:05:25.849Z,5.60
2017-10-13T10:06:25.868Z,5.60
2017-10-13T10:07:25.888Z,4.70
2017-10-13T10:08:25.909Z,5.50
2017-10-13T10:09:25.933Z,5.10
2017-10-13T10:10:25.953Z,4.80
2017-10-13T10:11:25.975Z,5.20
2017-10-13T10:12:26.006Z,5.50
2017-10-13T10:13:26.020Z,4.90
2017-10-13T10:14:26.045Z,5.30
2017-10-13T10:15:26.064Z,5.60
2017-10-13T10:16:26.085Z,4.90
2017-10-13T10:17:26.110Z,5.10
2017-10-13T10:18:26.131Z,5.70
2017-10-13T10:19:26.152Z,5.30
2017-10-13T10:20:26.177Z,5.50
2017-10-13T10:21:26.198Z,5.40
2017-10-13T10:22:26.223Z,5.30
2017-10-13T10:23:26.244Z,5.40
2017-10-13T10:24:26.266Z,5.40
2017-10-13T10:25:26.289Z,5.30
2017-10-13T10:26:26.310Z,5.20
2017-10-13T10:27:26.337Z,5.70
2017-10-13T10:28:26.358Z,5.00
2017-10-13T10:29:26.380Z,5.40
2017-10-13T10:30:26.401Z,5.10
2017-10-13T10:31:26.425Z,5.20
2017-10-13T10:32:26.448Z,5.20
2017-10-13T10:33:26.472Z,5.80
2017-10-13T10:34:26.492Z,6.20
2017-10-13T10:35:26.521Z,5.60
2017-10-13T10:36:26.542Z,6.30
2017-10-13T10:37:26.562Z,6.10
2017-10-13T10:38:26.586Z,6.10
2017-10-13T10:39:26.608Z,5.70
2017-10-13T10:40:26.632Z,5.40
2017-10-13T10:41:26.661Z,5.50
2017-10-13T10:42:26.682Z,5.50
2017-10-13T10:43:26.700Z,5.70
2017-10-13T10:44:26.728Z,5.50
2017-10-13T10:45:26.748Z,5.60
2017-10-13T10:46:26.775Z,5.80
2017-10-13T10:47:26.794Z,5.80
2017-10-13T10:48:26.824Z,5.30
2017-10-13T10:49:26.840Z,5.30
2017-10-13T10:50:26.864Z,5.70
2017-10-13T10:51:26.886Z,5.90
2017-10-13T10:52:26.908Z,5.80
2017-10-13T10:53:26.932Z,6.70
2017-10-13T10:54:26.960Z,6.20
2017-10-13T10:55:26.981Z,6.40
2017-10-13T10:56:26.999Z,6.80
2017-10-13T10:57:27.026Z,6.20
2017-10-13T10:58:27.050Z,6.40
2017-10-13T10:59:27.069Z,6.50
2017-10-13T11:00:27.096Z,6.70
2017-10-13T11:01:27.118Z,6.50
2017-10-13T11:02:27.141Z,7.10
2017-10-13T11:03:27.167Z,6.80
2017-10-13T11:04:27.185Z,6.40
2017-10-13T11:05:27.210Z,6.60
2017-10-13T11:06:27.233Z,6.60
2017-10-13T11:07:27.256Z,6.80
2017-10-13T11:08:27.279Z,6.50
2017-10-13T11:09:27.300Z,6.50
2017-10-13T11:10:27.324Z,6.30
2017-10-13T11:11:27.346Z,6.30
2017-10-13T11:12:27.369Z,6.20
2017-10-13T11:13:27.395Z,6.40
2017-10-13T11:14:27.416Z,6.70
2017-10-13T11:15:27.438Z,6.10
2017-10-13T11:16:27.460Z,6.50
2017-10-13T11:17:27.486Z,6.50
2017-10-13T11:18:27.511Z,6.30
2017-10-13T11:19:27.532Z,6.00
2017-10-13T11:20:27.566Z,6.10
2017-10-13T11:21:27.577Z,6.50
2017-10-13T11:22:27.602Z,6.20
2017-10-13T11:23:27.628Z,6.60
2017-10-13T11:24:27.647Z,6.50
2017-10-13T11:25:27.670Z,5.90
2017-10-13T11:26:27.696Z,6.20
2017-10-13T11:27:27.717Z,6.30
2017-10-13T11:28:27.737Z,6.80
2017-10-13T11:29:27.784Z,6.40
2017-10-13T11:30:27.788Z,6.50
2017-10-13T11:31:27.820Z,6.90
2017-10-13T11:32:27.957Z,6.60
2017-10-13T11:33:27.858Z,6.50
2017-10-13T11:34:27.880Z,6.30
2017-10-13T11:35:27.901Z,6.30
2017-10-13T11:36:27.928Z,6.20
2017-10-13T11:37:27.957Z,6.20
2017-10-13T11:38:27.973Z,6.00
2017-10-13T11:39:27.994Z,6.40
2017-10-13T11:40:28.017Z,6.10
2017-10-13T11:41:28.041Z,6.40
2017-10-13T11:42:28.064Z,6.70
2017-10-13T11:43:28.086Z,6.40
2017-10-13T11:44:28.111Z,6.20
2017-10-13T11:45:28.133Z,6.10
2017-10-13T11:46:28.157Z,6.70
2017-10-13T11:47:28.180Z,6.10
2017-10-13T11:48:28.203Z,6.60
2017-10-13T11:49:28.227Z,6.50
2017-10-13T11:50:28.252Z,6.90
2017-10-13T11:51:28.272Z,6.80
2017-10-13T11:52:28.294Z,6.60
2017-10-13T11:53:28.319Z,5.80
2017-10-13T11:54:28.340Z,6.70
2017-10-13T11:55:28.369Z,6.70
2017-10-13T11:56:28.389Z,6.70
2017-10-13T11:57:28.410Z,6.80
2017-10-13T11:58:28.440Z,7.30
2017-10-13T11:59:28.458Z,6.80
2017-10-13T12:00:28.478Z,6.30
2017-10-13T12:01:28.506Z,6.70
2017-10-13T12:02:28.526Z,6.70
2017-10-13T12:03:28.550Z,7.20
2017-10-13T12:04:28.568Z,6.80
2017-10-13T12:05:28.636Z,7.20
2017-10-13T12:06:28.626Z,7.20
2017-10-13T12:07:28.642Z,6.80
2017-10-13T12:08:28.663Z,7.00
2017-10-13T12:09:28.684Z,7.10
2017-10-13T12:10:28.706Z,6.90
2017-10-13T12:11:28.729Z,7.00
2017-10-13T12:12:28.757Z,7.20
2017-10-13T12:13:28.775Z,7.10
2017-10-13T12:14:28.802Z,7.30
2017-10-13T12:15:28.822Z,7.10
2017-10-13T12:16:28.848Z,6.80
2017-10-13T12:17:28.869Z,7.20
2017-10-13T12:18:28.892Z,7.00
2017-10-13T12:19:28.915Z,6.40
2017-10-13T12:20:28.938Z,7.20
2017-10-13T12:21:28.961Z,7.30
2017-10-13T12:22:28.983Z,6.90
2017-10-13T12:23:29.006Z,6.90
2017-10-13T12:24:29.029Z,7.00
2017-10-13T12:25:29.053Z,6.80
2017-10-13T12:26:29.073Z,6.80
2017-10-13T12:27:29.109Z,6.90
2017-10-13T12:28:29.124Z,6.90
2017-10-13T12:29:29.142Z,6.70
2017-10-13T12:30:29.164Z,6.70
2017-10-13T12:31:29.187Z,6.80
2017-10-13T12:32:29.211Z,6.70
2017-10-13T12:33:29.232Z,6.10
2017-10-13T12:34:29.258Z,6.30
2017-10-13T12:35:29.284Z,5.80
2017-10-13T12:36:29.311Z,6.60
2017-10-13T12:37:29.325Z,6.50
2017-10-13T12:38:29.348Z,6.40
2017-10-13T12:39:29.373Z,6.20
2017-10-13T12:40:29.394Z,7.00
2017-10-13T12:41:29.414Z,6.30
2017-10-13T12:42:29.439Z,6.00
2017-10-13T12:43:29.510Z,6.00
2017-10-13T12:44:29.483Z,6.10
2017-10-13T12:45:29.507Z,5.80
2017-10-13T12:46:29.541Z,6.20
2017-10-13T12:47:29.551Z,5.60
2017-10-13T12:48:29.574Z,5.70
2017-10-13T12:49:29.597Z,6.00
2017-10-13T12:50:29.619Z,5.40
2017-10-13T12:51:29.650Z,5.80
2017-10-13T12:52:29.669Z,6.10
2017-10-13T12:53:29.714Z,5.80
2017-10-13T12:54:29.713Z,6.20
2017-10-13T12:55:29.734Z,6.10
2017-10-13T12:56:29.759Z,6.40
2017-10-13T12:57:29.785Z,6.10
2017-10-13T12:58:29.807Z,6.30
2017-10-13T12:59:29.827Z,6.30
2017-10-13T13:00:29.850Z,6.20
2017-10-13T13:01:29.933Z,7.10
2017-10-13T13:02:29.898Z,5.90
2017-10-13T13:03:29.919Z,6.30
2017-10-13T13:04:29.943Z,6.30
2017-10-13T13:05:29.967Z,6.00
2017-10-13T13:06:29.987Z,5.90
2017-10-13T13:07:30.011Z,6.50
2017-10-13T13:08:30.035Z,6.30
2017-10-13T13:09:30.058Z,5.70
2017-10-13T13:10:30.079Z,6.20
2017-10-13T13:11:30.111Z,5.90
2017-10-13T13:12:30.126Z,5.80
2017-10-13T13:13:30.151Z,5.80
2017-10-13T13:14:30.172Z,6.00
2017-10-13T13:15:30.193Z,5.70
2017-10-13T13:16:30.216Z,5.90
2017-10-13T13:17:30.238Z,5.90